Aérodrome :
LOGIN :

S'inscrire | Disclaimer

   EN    FR    IT 

 










Légende :    VFR   VFR Marginal   IFR   IFR Intensif   IFR Très Intensif
Visi : 
Plafond : 
>= 8 km
>= 3000ft
5 à 8 km
1000 à 3000 ft
1500m à 5 km
500 à 1000 ft
800 à 1500m
200 à 500 ft
< 800m
< 200 ft
Symboles :   Orages  Brouillard  Fortes neiges  Fortes précipitations  Vent > 20 kt
SIGMETs :   Divers  Orages  Givrage  Turbulence  Onde Orograph.  Cendres Volcan.






- Altitude de l'aérodrome : 138 ft
- Code IATA : BIO


LEBB - Bilbao

DERNIER METAR :
  • 290600Z 12004KT 080V150 CAVOK 13/11 Q1021 NOSIG

METARs EXPIRÉS :
  • 290530Z 09003KT 040V120 CAVOK 12/12 Q1021 NOSIG
  • 290500Z 12003KT CAVOK 12/11 Q1020 NOSIG
  • 290430Z 07004KT 040V120 CAVOK 12/11 Q1020 NOSIG
  • 290400Z 08003KT CAVOK 12/11 Q1020 NOSIG
  • 290330Z 09004KT CAVOK 12/11 Q1020 NOSIG
  • 290300Z 07004KT CAVOK 12/11 Q1020 NOSIG
  • 290230Z AUTO 08003KT CAVOK 12/11 Q1020
  • 290200Z AUTO 09003KT 060V120 CAVOK 12/12 Q1020
  • 290130Z AUTO 09003KT CAVOK 12/12 Q1020

TAF TAF LEBB
Valide du 29 à 06h jusqu'au 30 à 06h UTC


290500Z 2906/3006 32009KT 9999 FEW025 TX23/2914Z TN12/2906Z
PROB40
TEMPO 2918/3006 BKN010



MET'MAP, la Météo Aéronautique d'un coup d'oeil ! - Copyright ORBIFLY Décembre 2007 - Disclaimer

ORBIFLY MET'MAP TEAM :

Programmation & Développement : Alexandra Zaïnal
Sur une idée originale de : Baudouin d'Aumeries
Soutien technique & logistique : Manuel Goepfert
Assistance : Marc-Olivier Méhu




SOURCES & CREDITS :

   NOAA